sensor_id;sensor_type;location;lat;lon;timestamp;P1;durP1;ratioP1;P2;durP2;ratioP2
24435;SDS011;12616;52.470;13.436;2023-05-10T00:01:22;9.33;;;5.97;;
24435;SDS011;12616;52.470;13.436;2023-05-10T00:03:51;7.27;;;6.40;;
24435;SDS011;12616;52.470;13.436;2023-05-10T00:06:21;6.20;;;5.60;;
24435;SDS011;12616;52.470;13.436;2023-05-10T00:08:48;9.07;;;6.03;;
24435;SDS011;12616;52.470;13.436;2023-05-10T00:11:15;6.73;;;6.13;;
24435;SDS011;12616;52.470;13.436;2023-05-10T00:13:42;7.57;;;6.47;;
24435;SDS011;12616;52.470;13.436;2023-05-10T00:16:08;10.67;;;6.83;;
24435;SDS011;12616;52.470;13.436;2023-05-10T00:18:37;7.93;;;6.13;;
24435;SDS011;12616;52.470;13.436;2023-05-10T00:21:04;7.47;;;6.63;;
24435;SDS011;12616;52.470;13.436;2023-05-10T00:23:32;8.27;;;7.47;;
24435;SDS011;12616;52.470;13.436;2023-05-10T00:25:59;5.80;;;5.30;;
24435;SDS011;12616;52.470;13.436;2023-05-10T00:28:27;6.57;;;5.97;;
24435;SDS011;12616;52.470;13.436;2023-05-10T00:30:54;7.37;;;6.00;;
24435;SDS011;12616;52.470;13.436;2023-05-10T00:33:21;9.47;;;6.43;;
24435;SDS011;12616;52.470;13.436;2023-05-10T00:35:48;7.33;;;6.63;;
24435;SDS011;12616;52.470;13.436;2023-05-10T00:38:15;6.93;;;6.23;;
24435;SDS011;12616;52.470;13.436;2023-05-10T00:40:43;10.83;;;6.50;;
24435;SDS011;12616;52.470;13.436;2023-05-10T00:43:10;8.13;;;5.93;;
24435;SDS011;12616;52.470;13.436;2023-05-10T00:45:37;7.53;;;6.73;;
24435;SDS011;12616;52.470;13.436;2023-05-10T00:48:09;7.77;;;6.97;;
24435;SDS011;12616;52.470;13.436;2023-05-10T00:50:36;8.73;;;7.00;;
24435;SDS011;12616;52.470;13.436;2023-05-10T00:53:07;7.60;;;6.90;;
24435;SDS011;12616;52.470;13.436;2023-05-10T00:55:35;10.63;;;7.67;;
24435;SDS011;12616;52.470;13.436;2023-05-10T00:58:04;14.23;;;8.27;;
24435;SDS011;12616;52.470;13.436;2023-05-10T01:00:32;8.10;;;7.40;;
24435;SDS011;12616;52.470;13.436;2023-05-10T01:02:59;8.57;;;7.60;;
24435;SDS011;12616;52.470;13.436;2023-05-10T01:05:26;11.13;;;7.40;;
24435;SDS011;12616;52.470;13.436;2023-05-10T01:07:53;8.40;;;7.70;;
24435;SDS011;12616;52.470;13.436;2023-05-10T01:10:20;8.17;;;7.27;;
24435;SDS011;12616;52.470;13.436;2023-05-10T01:12:47;7.83;;;7.20;;
24435;SDS011;12616;52.470;13.436;2023-05-10T01:15:19;10.30;;;7.33;;
24435;SDS011;12616;52.470;13.436;2023-05-10T01:17:50;7.73;;;6.97;;
24435;SDS011;12616;52.470;13.436;2023-05-10T01:20:18;7.60;;;6.60;;
24435;SDS011;12616;52.470;13.436;2023-05-10T01:22:50;9.03;;;8.27;;
24435;SDS011;12616;52.470;13.436;2023-05-10T01:25:42;7.20;;;6.27;;
24435;SDS011;12616;52.470;13.436;2023-05-10T01:28:30;8.33;;;7.23;;
24435;SDS011;12616;52.470;13.436;2023-05-10T01:31:25;8.57;;;7.57;;
24435;SDS011;12616;52.470;13.436;2023-05-10T01:34:06;7.63;;;6.93;;
24435;SDS011;12616;52.470;13.436;2023-05-10T01:36:38;10.30;;;7.43;;
24435;SDS011;12616;52.470;13.436;2023-05-10T01:39:15;7.53;;;6.87;;
24435;SDS011;12616;52.470;13.436;2023-05-10T01:41:52;8.13;;;7.43;;
24435;SDS011;12616;52.470;13.436;2023-05-10T01:44:29;7.63;;;6.83;;
24435;SDS011;12616;52.470;13.436;2023-05-10T01:47:09;7.57;;;6.87;;
24435;SDS011;12616;52.470;13.436;2023-05-10T01:49:41;11.77;;;7.23;;
24435;SDS011;12616;52.470;13.436;2023-05-10T01:52:12;8.50;;;7.57;;
24435;SDS011;12616;52.470;13.436;2023-05-10T01:54:42;10.40;;;6.77;;
24435;SDS011;12616;52.470;13.436;2023-05-10T01:57:15;8.23;;;7.43;;
24435;SDS011;12616;52.470;13.436;2023-05-10T01:59:45;7.70;;;6.90;;
24435;SDS011;12616;52.470;13.436;2023-05-10T02:02:16;7.30;;;6.70;;
24435;SDS011;12616;52.470;13.436;2023-05-10T02:04:47;9.13;;;6.90;;
24435;SDS011;12616;52.470;13.436;2023-05-10T02:07:15;9.00;;;7.23;;
24435;SDS011;12616;52.470;13.436;2023-05-10T02:09:44;8.60;;;7.17;;
24435;SDS011;12616;52.470;13.436;2023-05-10T02:12:13;7.27;;;6.67;;
24435;SDS011;12616;52.470;13.436;2023-05-10T02:14:41;7.40;;;6.70;;
24435;SDS011;12616;52.470;13.436;2023-05-10T02:17:09;7.70;;;6.90;;
24435;SDS011;12616;52.470;13.436;2023-05-10T02:19:38;8.00;;;6.90;;
24435;SDS011;12616;52.470;13.436;2023-05-10T02:22:08;6.73;;;6.20;;
24435;SDS011;12616;52.470;13.436;2023-05-10T02:24:35;7.47;;;6.40;;
24435;SDS011;12616;52.470;13.436;2023-05-10T02:27:03;8.47;;;7.67;;
24435;SDS011;12616;52.470;13.436;2023-05-10T02:29:31;8.40;;;7.60;;
24435;SDS011;12616;52.470;13.436;2023-05-10T02:31:59;7.20;;;6.60;;
24435;SDS011;12616;52.470;13.436;2023-05-10T02:34:27;6.97;;;6.20;;
24435;SDS011;12616;52.470;13.436;2023-05-10T02:36:55;7.40;;;6.70;;
24435;SDS011;12616;52.470;13.436;2023-05-10T02:39:27;8.03;;;7.20;;
24435;SDS011;12616;52.470;13.436;2023-05-10T02:41:55;7.63;;;6.83;;
24435;SDS011;12616;52.470;13.436;2023-05-10T02:44:23;8.73;;;6.47;;
24435;SDS011;12616;52.470;13.436;2023-05-10T02:46:53;7.37;;;6.57;;
24435;SDS011;12616;52.470;13.436;2023-05-10T02:49:20;6.97;;;6.43;;
24435;SDS011;12616;52.470;13.436;2023-05-10T02:51:49;11.10;;;7.13;;
24435;SDS011;12616;52.470;13.436;2023-05-10T02:54:20;7.80;;;6.23;;
24435;SDS011;12616;52.470;13.436;2023-05-10T02:56:53;9.40;;;6.80;;
24435;SDS011;12616;52.470;13.436;2023-05-10T02:59:23;7.33;;;6.13;;
24435;SDS011;12616;52.470;13.436;2023-05-10T03:01:50;8.50;;;6.90;;
24435;SDS011;12616;52.470;13.436;2023-05-10T03:04:17;8.60;;;6.30;;
24435;SDS011;12616;52.470;13.436;2023-05-10T03:06:44;6.87;;;6.27;;
24435;SDS011;12616;52.470;13.436;2023-05-10T03:09:11;7.50;;;6.13;;
24435;SDS011;12616;52.470;13.436;2023-05-10T03:11:43;9.47;;;6.57;;
24435;SDS011;12616;52.470;13.436;2023-05-10T03:14:25;7.70;;;7.00;;
24435;SDS011;12616;52.470;13.436;2023-05-10T03:17:02;7.43;;;6.70;;
24435;SDS011;12616;52.470;13.436;2023-05-10T03:19:36;7.60;;;6.80;;
24435;SDS011;12616;52.470;13.436;2023-05-10T03:22:12;7.80;;;5.60;;
24435;SDS011;12616;52.470;13.436;2023-05-10T03:24:47;7.70;;;6.47;;
24435;SDS011;12616;52.470;13.436;2023-05-10T03:27:15;6.57;;;5.97;;
24435;SDS011;12616;52.470;13.436;2023-05-10T03:29:44;7.80;;;5.73;;
24435;SDS011;12616;52.470;13.436;2023-05-10T03:32:12;6.57;;;5.87;;
24435;SDS011;12616;52.470;13.436;2023-05-10T03:34:41;7.40;;;6.70;;
24435;SDS011;12616;52.470;13.436;2023-05-10T03:37:08;6.73;;;6.17;;
24435;SDS011;12616;52.470;13.436;2023-05-10T03:39:35;10.27;;;7.03;;
24435;SDS011;12616;52.470;13.436;2023-05-10T03:42:02;6.80;;;6.00;;
24435;SDS011;12616;52.470;13.436;2023-05-10T03:44:29;6.03;;;5.53;;
24435;SDS011;12616;52.470;13.436;2023-05-10T03:46:57;6.37;;;5.73;;
24435;SDS011;12616;52.470;13.436;2023-05-10T03:49:24;6.93;;;6.27;;
24435;SDS011;12616;52.470;13.436;2023-05-10T03:51:51;6.33;;;5.77;;
24435;SDS011;12616;52.470;13.436;2023-05-10T03:54:18;7.20;;;5.40;;
24435;SDS011;12616;52.470;13.436;2023-05-10T03:56:45;13.53;;;6.47;;
24435;SDS011;12616;52.470;13.436;2023-05-10T03:59:12;7.33;;;6.60;;
24435;SDS011;12616;52.470;13.436;2023-05-10T04:01:40;11.27;;;6.00;;
24435;SDS011;12616;52.470;13.436;2023-05-10T04:04:08;8.67;;;5.80;;
24435;SDS011;12616;52.470;13.436;2023-05-10T04:06:35;6.70;;;6.00;;
24435;SDS011;12616;52.470;13.436;2023-05-10T04:09:01;6.17;;;5.60;;
24435;SDS011;12616;52.470;13.436;2023-05-10T04:11:29;7.07;;;5.10;;
24435;SDS011;12616;52.470;13.436;2023-05-10T04:13:56;9.20;;;7.63;;
24435;SDS011;12616;52.470;13.436;2023-05-10T04:16:23;9.03;;;6.13;;
24435;SDS011;12616;52.470;13.436;2023-05-10T04:18:50;6.00;;;5.40;;
24435;SDS011;12616;52.470;13.436;2023-05-10T04:21:18;5.93;;;5.33;;
24435;SDS011;12616;52.470;13.436;2023-05-10T04:23:45;7.00;;;5.90;;
24435;SDS011;12616;52.470;13.436;2023-05-10T04:26:12;7.43;;;5.77;;
24435;SDS011;12616;52.470;13.436;2023-05-10T04:28:39;8.50;;;5.97;;
24435;SDS011;12616;52.470;13.436;2023-05-10T04:31:06;7.77;;;6.17;;
24435;SDS011;12616;52.470;13.436;2023-05-10T04:33:34;8.27;;;6.43;;
24435;SDS011;12616;52.470;13.436;2023-05-10T04:36:01;9.70;;;6.33;;
24435;SDS011;12616;52.470;13.436;2023-05-10T04:38:30;7.73;;;6.27;;
24435;SDS011;12616;52.470;13.436;2023-05-10T04:41:03;6.03;;;5.40;;
24435;SDS011;12616;52.470;13.436;2023-05-10T04:43:31;8.50;;;6.30;;
24435;SDS011;12616;52.470;13.436;2023-05-10T04:45:58;6.10;;;5.40;;
24435;SDS011;12616;52.470;13.436;2023-05-10T04:48:25;8.63;;;5.63;;
24435;SDS011;12616;52.470;13.436;2023-05-10T04:50:51;7.63;;;5.60;;
24435;SDS011;12616;52.470;13.436;2023-05-10T04:53:18;9.40;;;5.47;;
24435;SDS011;12616;52.470;13.436;2023-05-10T04:55:46;10.80;;;5.67;;
24435;SDS011;12616;52.470;13.436;2023-05-10T04:58:13;7.40;;;6.30;;
24435;SDS011;12616;52.470;13.436;2023-05-10T05:00:40;12.23;;;5.90;;
24435;SDS011;12616;52.470;13.436;2023-05-10T05:03:07;8.13;;;5.33;;
24435;SDS011;12616;52.470;13.436;2023-05-10T05:05:34;6.30;;;4.57;;
24435;SDS011;12616;52.470;13.436;2023-05-10T05:08:01;13.73;;;6.40;;
24435;SDS011;12616;52.470;13.436;2023-05-10T05:10:28;6.20;;;5.70;;
24435;SDS011;12616;52.470;13.436;2023-05-10T05:12:57;6.43;;;5.83;;
24435;SDS011;12616;52.470;13.436;2023-05-10T05:15:23;7.67;;;5.20;;
24435;SDS011;12616;52.470;13.436;2023-05-10T05:17:50;5.30;;;4.67;;
24435;SDS011;12616;52.470;13.436;2023-05-10T05:20:19;10.13;;;6.40;;
24435;SDS011;12616;52.470;13.436;2023-05-10T05:22:46;7.23;;;5.27;;
24435;SDS011;12616;52.470;13.436;2023-05-10T05:25:13;7.20;;;5.90;;
24435;SDS011;12616;52.470;13.436;2023-05-10T05:27:41;5.10;;;4.70;;
24435;SDS011;12616;52.470;13.436;2023-05-10T05:30:09;7.50;;;5.10;;
24435;SDS011;12616;52.470;13.436;2023-05-10T05:32:37;8.93;;;5.53;;
24435;SDS011;12616;52.470;13.436;2023-05-10T05:35:04;6.63;;;5.27;;
24435;SDS011;12616;52.470;13.436;2023-05-10T05:37:32;6.97;;;5.23;;
24435;SDS011;12616;52.470;13.436;2023-05-10T05:39:58;7.80;;;4.97;;
24435;SDS011;12616;52.470;13.436;2023-05-10T05:42:26;4.77;;;4.37;;
24435;SDS011;12616;52.470;13.436;2023-05-10T05:44:53;4.73;;;4.37;;
24435;SDS011;12616;52.470;13.436;2023-05-10T05:47:22;5.90;;;4.30;;
24435;SDS011;12616;52.470;13.436;2023-05-10T05:49:48;6.40;;;4.70;;
24435;SDS011;12616;52.470;13.436;2023-05-10T05:52:16;5.33;;;4.10;;
24435;SDS011;12616;52.470;13.436;2023-05-10T05:54:43;4.30;;;3.57;;
24435;SDS011;12616;52.470;13.436;2023-05-10T05:57:10;4.30;;;3.90;;
24435;SDS011;12616;52.470;13.436;2023-05-10T05:59:37;6.30;;;4.50;;
24435;SDS011;12616;52.470;13.436;2023-05-10T06:02:07;5.03;;;3.80;;
24435;SDS011;12616;52.470;13.436;2023-05-10T06:04:35;7.07;;;4.70;;
24435;SDS011;12616;52.470;13.436;2023-05-10T06:07:02;5.13;;;3.87;;
24435;SDS011;12616;52.470;13.436;2023-05-10T06:09:29;4.70;;;4.20;;
24435;SDS011;12616;52.470;13.436;2023-05-10T06:11:56;4.60;;;4.20;;
24435;SDS011;12616;52.470;13.436;2023-05-10T06:14:23;5.40;;;4.17;;
24435;SDS011;12616;52.470;13.436;2023-05-10T06:16:49;6.20;;;4.10;;
24435;SDS011;12616;52.470;13.436;2023-05-10T06:19:16;4.97;;;3.93;;
24435;SDS011;12616;52.470;13.436;2023-05-10T06:21:45;6.13;;;4.20;;
24435;SDS011;12616;52.470;13.436;2023-05-10T06:24:12;6.53;;;4.27;;
24435;SDS011;12616;52.470;13.436;2023-05-10T06:26:39;7.47;;;4.10;;
24435;SDS011;12616;52.470;13.436;2023-05-10T06:29:06;4.20;;;3.67;;
24435;SDS011;12616;52.470;13.436;2023-05-10T06:31:33;4.37;;;4.00;;
24435;SDS011;12616;52.470;13.436;2023-05-10T06:34:00;4.83;;;4.23;;
24435;SDS011;12616;52.470;13.436;2023-05-10T06:36:27;14.33;;;4.93;;
24435;SDS011;12616;52.470;13.436;2023-05-10T06:38:55;8.00;;;3.80;;
24435;SDS011;12616;52.470;13.436;2023-05-10T06:41:22;4.80;;;3.30;;
24435;SDS011;12616;52.470;13.436;2023-05-10T06:43:49;7.03;;;3.57;;
24435;SDS011;12616;52.470;13.436;2023-05-10T06:46:16;4.20;;;3.80;;
24435;SDS011;12616;52.470;13.436;2023-05-10T06:48:43;4.90;;;3.17;;
24435;SDS011;12616;52.470;13.436;2023-05-10T06:51:10;4.43;;;3.87;;
24435;SDS011;12616;52.470;13.436;2023-05-10T06:53:37;4.93;;;4.10;;
24435;SDS011;12616;52.470;13.436;2023-05-10T06:56:05;4.90;;;4.03;;
24435;SDS011;12616;52.470;13.436;2023-05-10T06:58:32;5.70;;;3.57;;
24435;SDS011;12616;52.470;13.436;2023-05-10T07:01:01;10.20;;;3.73;;
24435;SDS011;12616;52.470;13.436;2023-05-10T07:03:29;3.97;;;3.67;;
24435;SDS011;12616;52.470;13.436;2023-05-10T07:05:59;5.27;;;4.40;;
24435;SDS011;12616;52.470;13.436;2023-05-10T07:08:28;9.40;;;4.10;;
24435;SDS011;12616;52.470;13.436;2023-05-10T07:10:58;3.87;;;3.27;;
24435;SDS011;12616;52.470;13.436;2023-05-10T07:13:27;4.67;;;4.30;;
24435;SDS011;12616;52.470;13.436;2023-05-10T07:15:57;3.83;;;3.10;;
24435;SDS011;12616;52.470;13.436;2023-05-10T07:18:24;4.27;;;3.70;;
24435;SDS011;12616;52.470;13.436;2023-05-10T07:20:51;8.43;;;3.70;;
24435;SDS011;12616;52.470;13.436;2023-05-10T07:23:18;4.90;;;4.33;;
24435;SDS011;12616;52.470;13.436;2023-05-10T07:25:45;4.20;;;3.90;;
24435;SDS011;12616;52.470;13.436;2023-05-10T07:28:12;10.07;;;3.60;;
24435;SDS011;12616;52.470;13.436;2023-05-10T07:30:41;4.63;;;4.23;;
24435;SDS011;12616;52.470;13.436;2023-05-10T07:33:09;5.53;;;3.80;;
24435;SDS011;12616;52.470;13.436;2023-05-10T07:35:37;4.87;;;3.93;;
24435;SDS011;12616;52.470;13.436;2023-05-10T07:38:04;4.80;;;3.30;;
24435;SDS011;12616;52.470;13.436;2023-05-10T07:40:31;6.43;;;3.20;;
24435;SDS011;12616;52.470;13.436;2023-05-10T07:43:00;3.30;;;3.00;;
24435;SDS011;12616;52.470;13.436;2023-05-10T07:45:27;3.17;;;2.90;;
24435;SDS011;12616;52.470;13.436;2023-05-10T07:47:55;4.07;;;3.63;;
24435;SDS011;12616;52.470;13.436;2023-05-10T07:50:22;3.77;;;3.10;;
24435;SDS011;12616;52.470;13.436;2023-05-10T07:52:49;3.40;;;3.10;;
24435;SDS011;12616;52.470;13.436;2023-05-10T07:55:16;4.07;;;3.73;;
24435;SDS011;12616;52.470;13.436;2023-05-10T07:57:44;3.37;;;3.10;;
24435;SDS011;12616;52.470;13.436;2023-05-10T08:00:12;3.77;;;3.23;;
24435;SDS011;12616;52.470;13.436;2023-05-10T08:02:42;3.57;;;3.27;;
24435;SDS011;12616;52.470;13.436;2023-05-10T08:05:10;4.13;;;3.20;;
24435;SDS011;12616;52.470;13.436;2023-05-10T08:07:38;5.03;;;3.10;;
24435;SDS011;12616;52.470;13.436;2023-05-10T08:10:05;5.60;;;3.43;;
24435;SDS011;12616;52.470;13.436;2023-05-10T08:12:33;4.67;;;3.40;;
24435;SDS011;12616;52.470;13.436;2023-05-10T08:15:00;4.30;;;3.90;;
24435;SDS011;12616;52.470;13.436;2023-05-10T08:17:28;5.90;;;3.23;;
24435;SDS011;12616;52.470;13.436;2023-05-10T08:19:56;4.00;;;3.03;;
24435;SDS011;12616;52.470;13.436;2023-05-10T08:22:24;3.43;;;3.13;;
24435;SDS011;12616;52.470;13.436;2023-05-10T08:24:51;3.83;;;3.40;;
24435;SDS011;12616;52.470;13.436;2023-05-10T08:27:18;5.27;;;3.63;;
24435;SDS011;12616;52.470;13.436;2023-05-10T08:29:44;6.90;;;3.10;;
24435;SDS011;12616;52.470;13.436;2023-05-10T08:32:11;4.13;;;3.47;;
24435;SDS011;12616;52.470;13.436;2023-05-10T08:34:38;5.10;;;3.60;;
24435;SDS011;12616;52.470;13.436;2023-05-10T08:37:05;7.90;;;3.60;;
24435;SDS011;12616;52.470;13.436;2023-05-10T08:39:35;5.23;;;3.20;;
24435;SDS011;12616;52.470;13.436;2023-05-10T08:42:03;3.73;;;3.43;;
24435;SDS011;12616;52.470;13.436;2023-05-10T08:44:30;3.90;;;3.30;;
24435;SDS011;12616;52.470;13.436;2023-05-10T08:46:59;3.40;;;2.70;;
24435;SDS011;12616;52.470;13.436;2023-05-10T08:49:30;5.67;;;4.23;;
24435;SDS011;12616;52.470;13.436;2023-05-10T08:51:58;5.90;;;3.87;;
24435;SDS011;12616;52.470;13.436;2023-05-10T08:54:28;7.43;;;3.37;;
24435;SDS011;12616;52.470;13.436;2023-05-10T08:56:57;6.80;;;3.73;;
24435;SDS011;12616;52.470;13.436;2023-05-10T08:59:24;10.77;;;3.90;;
24435;SDS011;12616;52.470;13.436;2023-05-10T09:01:51;8.27;;;5.77;;
24435;SDS011;12616;52.470;13.436;2023-05-10T09:04:20;3.70;;;3.40;;
24435;SDS011;12616;52.470;13.436;2023-05-10T09:06:48;5.07;;;3.50;;
24435;SDS011;12616;52.470;13.436;2023-05-10T09:09:15;3.13;;;2.90;;
24435;SDS011;12616;52.470;13.436;2023-05-10T09:11:43;3.90;;;3.50;;
24435;SDS011;12616;52.470;13.436;2023-05-10T09:14:11;6.37;;;4.07;;
24435;SDS011;12616;52.470;13.436;2023-05-10T09:16:39;5.23;;;4.73;;
24435;SDS011;12616;52.470;13.436;2023-05-10T09:19:06;5.00;;;3.30;;
24435;SDS011;12616;52.470;13.436;2023-05-10T09:21:35;3.37;;;2.87;;
24435;SDS011;12616;52.470;13.436;2023-05-10T09:24:03;3.50;;;3.23;;
24435;SDS011;12616;52.470;13.436;2023-05-10T09:26:31;3.67;;;3.37;;
24435;SDS011;12616;52.470;13.436;2023-05-10T09:28:58;7.03;;;3.20;;
24435;SDS011;12616;52.470;13.436;2023-05-10T09:34:12;3.70;;;3.40;;
24435;SDS011;12616;52.470;13.436;2023-05-10T09:36:52;4.43;;;3.40;;
24435;SDS011;12616;52.470;13.436;2023-05-10T09:39:20;4.00;;;3.70;;
24435;SDS011;12616;52.470;13.436;2023-05-10T09:41:56;6.80;;;4.13;;
24435;SDS011;12616;52.470;13.436;2023-05-10T09:44:24;4.57;;;3.67;;
24435;SDS011;12616;52.470;13.436;2023-05-10T09:46:53;4.10;;;3.63;;
24435;SDS011;12616;52.470;13.436;2023-05-10T09:49:20;9.50;;;3.93;;
24435;SDS011;12616;52.470;13.436;2023-05-10T09:51:47;3.53;;;3.23;;
24435;SDS011;12616;52.470;13.436;2023-05-10T09:54:25;5.20;;;4.20;;
24435;SDS011;12616;52.470;13.436;2023-05-10T09:56:52;3.87;;;3.57;;
24435;SDS011;12616;52.470;13.436;2023-05-10T09:59:19;3.73;;;3.43;;
24435;SDS011;12616;52.470;13.436;2023-05-10T10:01:49;9.93;;;3.80;;
24435;SDS011;12616;52.470;13.436;2023-05-10T10:04:17;4.80;;;3.93;;
24435;SDS011;12616;52.470;13.436;2023-05-10T10:06:46;4.13;;;3.40;;
24435;SDS011;12616;52.470;13.436;2023-05-10T10:09:15;13.93;;;10.30;;
24435;SDS011;12616;52.470;13.436;2023-05-10T10:11:50;3.77;;;3.47;;
24435;SDS011;12616;52.470;13.436;2023-05-10T10:14:16;4.40;;;3.77;;
24435;SDS011;12616;52.470;13.436;2023-05-10T10:16:44;4.90;;;3.43;;
24435;SDS011;12616;52.470;13.436;2023-05-10T10:19:12;4.17;;;3.87;;
24435;SDS011;12616;52.470;13.436;2023-05-10T10:21:40;3.87;;;3.50;;
24435;SDS011;12616;52.470;13.436;2023-05-10T10:24:07;7.97;;;4.40;;
24435;SDS011;12616;52.470;13.436;2023-05-10T10:26:35;4.70;;;3.80;;
24435;SDS011;12616;52.470;13.436;2023-05-10T10:29:06;4.07;;;3.50;;
24435;SDS011;12616;52.470;13.436;2023-05-10T10:31:45;6.43;;;3.43;;
24435;SDS011;12616;52.470;13.436;2023-05-10T10:34:19;3.30;;;3.00;;
24435;SDS011;12616;52.470;13.436;2023-05-10T10:36:52;4.97;;;3.70;;
24435;SDS011;12616;52.470;13.436;2023-05-10T10:39:21;4.50;;;4.10;;
24435;SDS011;12616;52.470;13.436;2023-05-10T10:41:50;10.63;;;7.33;;
24435;SDS011;12616;52.470;13.436;2023-05-10T10:44:25;6.37;;;5.77;;
24435;SDS011;12616;52.470;13.436;2023-05-10T10:46:59;4.37;;;4.03;;
24435;SDS011;12616;52.470;13.436;2023-05-10T10:49:34;4.30;;;3.10;;
24435;SDS011;12616;52.470;13.436;2023-05-10T10:52:21;3.30;;;2.87;;
24435;SDS011;12616;52.470;13.436;2023-05-10T10:54:52;4.10;;;3.70;;
24435;SDS011;12616;52.470;13.436;2023-05-10T10:57:20;4.77;;;3.40;;
24435;SDS011;12616;52.470;13.436;2023-05-10T11:02:53;8.53;;;3.73;;
24435;SDS011;12616;52.470;13.436;2023-05-10T11:05:33;4.90;;;3.80;;
24435;SDS011;12616;52.470;13.436;2023-05-10T11:08:10;3.67;;;3.37;;
24435;SDS011;12616;52.470;13.436;2023-05-10T11:10:51;4.00;;;3.70;;
24435;SDS011;12616;52.470;13.436;2023-05-10T11:13:29;3.73;;;3.30;;
24435;SDS011;12616;52.470;13.436;2023-05-10T11:15:57;3.37;;;3.10;;
24435;SDS011;12616;52.470;13.436;2023-05-10T11:18:25;5.93;;;3.50;;
24435;SDS011;12616;52.470;13.436;2023-05-10T11:20:56;5.40;;;3.30;;
24435;SDS011;12616;52.470;13.436;2023-05-10T11:23:30;6.40;;;3.70;;
24435;SDS011;12616;52.470;13.436;2023-05-10T11:25:58;3.10;;;2.80;;
24435;SDS011;12616;52.470;13.436;2023-05-10T11:28:26;4.90;;;3.17;;
24435;SDS011;12616;52.470;13.436;2023-05-10T11:30:53;4.50;;;3.63;;
24435;SDS011;12616;52.470;13.436;2023-05-10T11:33:21;3.10;;;2.90;;
24435;SDS011;12616;52.470;13.436;2023-05-10T11:35:48;3.67;;;3.37;;
24435;SDS011;12616;52.470;13.436;2023-05-10T11:38:15;6.50;;;3.30;;
24435;SDS011;12616;52.470;13.436;2023-05-10T11:40:43;5.63;;;3.43;;
24435;SDS011;12616;52.470;13.436;2023-05-10T11:43:10;3.23;;;2.93;;
24435;SDS011;12616;52.470;13.436;2023-05-10T11:45:39;5.23;;;3.13;;
24435;SDS011;12616;52.470;13.436;2023-05-10T11:48:08;3.33;;;3.03;;
24435;SDS011;12616;52.470;13.436;2023-05-10T11:50:35;3.70;;;3.40;;
24435;SDS011;12616;52.470;13.436;2023-05-10T11:53:02;4.37;;;3.80;;
24435;SDS011;12616;52.470;13.436;2023-05-10T11:55:29;3.53;;;2.87;;
24435;SDS011;12616;52.470;13.436;2023-05-10T11:58:01;4.60;;;4.20;;
24435;SDS011;12616;52.470;13.436;2023-05-10T12:00:28;7.83;;;4.10;;
24435;SDS011;12616;52.470;13.436;2023-05-10T12:03:00;10.73;;;4.30;;
24435;SDS011;12616;52.470;13.436;2023-05-10T12:05:27;3.97;;;3.20;;
24435;SDS011;12616;52.470;13.436;2023-05-10T12:08:10;3.43;;;2.70;;
24435;SDS011;12616;52.470;13.436;2023-05-10T12:10:37;4.40;;;3.50;;
24435;SDS011;12616;52.470;13.436;2023-05-10T12:13:06;8.13;;;3.80;;
24435;SDS011;12616;52.470;13.436;2023-05-10T12:15:37;5.30;;;3.10;;
24435;SDS011;12616;52.470;13.436;2023-05-10T12:18:04;4.63;;;3.20;;
24435;SDS011;12616;52.470;13.436;2023-05-10T12:20:31;5.53;;;3.73;;
24435;SDS011;12616;52.470;13.436;2023-05-10T12:22:58;8.77;;;3.43;;
24435;SDS011;12616;52.470;13.436;2023-05-10T12:25:29;3.83;;;3.37;;
24435;SDS011;12616;52.470;13.436;2023-05-10T12:27:58;7.80;;;3.57;;
24435;SDS011;12616;52.470;13.436;2023-05-10T12:30:28;3.87;;;3.47;;
24435;SDS011;12616;52.470;13.436;2023-05-10T12:33:06;9.07;;;3.90;;
24435;SDS011;12616;52.470;13.436;2023-05-10T12:35:44;6.20;;;4.07;;
24435;SDS011;12616;52.470;13.436;2023-05-10T12:38:28;5.03;;;3.53;;
24435;SDS011;12616;52.470;13.436;2023-05-10T12:40:58;6.77;;;4.20;;
24435;SDS011;12616;52.470;13.436;2023-05-10T12:43:27;4.90;;;3.70;;
24435;SDS011;12616;52.470;13.436;2023-05-10T12:45:55;4.40;;;3.90;;
24435;SDS011;12616;52.470;13.436;2023-05-10T12:48:22;4.47;;;3.97;;
24435;SDS011;12616;52.470;13.436;2023-05-10T12:50:53;6.93;;;4.90;;
24435;SDS011;12616;52.470;13.436;2023-05-10T12:53:20;5.03;;;3.93;;
24435;SDS011;12616;52.470;13.436;2023-05-10T12:55:50;4.63;;;3.80;;
24435;SDS011;12616;52.470;13.436;2023-05-10T12:58:17;6.30;;;3.50;;
24435;SDS011;12616;52.470;13.436;2023-05-10T13:00:46;9.40;;;4.43;;
24435;SDS011;12616;52.470;13.436;2023-05-10T13:03:18;3.43;;;3.13;;
24435;SDS011;12616;52.470;13.436;2023-05-10T13:05:45;3.40;;;3.10;;
24435;SDS011;12616;52.470;13.436;2023-05-10T13:08:12;5.43;;;3.60;;
24435;SDS011;12616;52.470;13.436;2023-05-10T13:10:41;12.50;;;3.33;;
24435;SDS011;12616;52.470;13.436;2023-05-10T13:13:08;4.43;;;4.03;;
24435;SDS011;12616;52.470;13.436;2023-05-10T13:15:35;5.10;;;4.60;;
24435;SDS011;12616;52.470;13.436;2023-05-10T13:18:02;4.83;;;4.43;;
24435;SDS011;12616;52.470;13.436;2023-05-10T13:20:30;6.40;;;4.23;;
24435;SDS011;12616;52.470;13.436;2023-05-10T13:22:58;5.67;;;4.77;;
24435;SDS011;12616;52.470;13.436;2023-05-10T13:25:25;9.23;;;3.40;;
24435;SDS011;12616;52.470;13.436;2023-05-10T13:27:52;4.20;;;3.80;;
24435;SDS011;12616;52.470;13.436;2023-05-10T13:30:19;4.57;;;3.23;;
24435;SDS011;12616;52.470;13.436;2023-05-10T13:32:46;3.30;;;2.80;;
24435;SDS011;12616;52.470;13.436;2023-05-10T13:35:13;4.60;;;3.70;;
24435;SDS011;12616;52.470;13.436;2023-05-10T13:37:42;3.70;;;3.40;;
24435;SDS011;12616;52.470;13.436;2023-05-10T13:40:09;4.93;;;3.40;;
24435;SDS011;12616;52.470;13.436;2023-05-10T13:42:36;7.47;;;3.20;;
24435;SDS011;12616;52.470;13.436;2023-05-10T13:45:04;4.73;;;4.27;;
24435;SDS011;12616;52.470;13.436;2023-05-10T13:47:31;4.70;;;3.57;;
24435;SDS011;12616;52.470;13.436;2023-05-10T13:49:58;5.23;;;3.80;;
24435;SDS011;12616;52.470;13.436;2023-05-10T13:52:26;5.60;;;4.07;;
24435;SDS011;12616;52.470;13.436;2023-05-10T13:54:54;4.60;;;4.20;;
24435;SDS011;12616;52.470;13.436;2023-05-10T13:57:21;5.57;;;3.70;;
24435;SDS011;12616;52.470;13.436;2023-05-10T13:59:48;3.90;;;2.93;;
24435;SDS011;12616;52.470;13.436;2023-05-10T14:02:15;4.50;;;4.10;;
24435;SDS011;12616;52.470;13.436;2023-05-10T14:04:42;3.80;;;3.00;;
24435;SDS011;12616;52.470;13.436;2023-05-10T14:07:09;4.27;;;3.60;;
24435;SDS011;12616;52.470;13.436;2023-05-10T14:09:36;6.40;;;3.40;;
24435;SDS011;12616;52.470;13.436;2023-05-10T14:12:04;3.40;;;3.10;;
24435;SDS011;12616;52.470;13.436;2023-05-10T14:14:31;3.60;;;3.30;;
24435;SDS011;12616;52.470;13.436;2023-05-10T14:16:58;3.70;;;3.40;;
24435;SDS011;12616;52.470;13.436;2023-05-10T14:19:25;4.60;;;3.03;;
24435;SDS011;12616;52.470;13.436;2023-05-10T14:21:52;3.03;;;2.83;;
24435;SDS011;12616;52.470;13.436;2023-05-10T14:24:19;8.07;;;4.10;;
24435;SDS011;12616;52.470;13.436;2023-05-10T14:26:46;3.20;;;3.00;;
24435;SDS011;12616;52.470;13.436;2023-05-10T14:29:14;3.40;;;3.10;;
24435;SDS011;12616;52.470;13.436;2023-05-10T14:31:42;3.70;;;3.13;;
24435;SDS011;12616;52.470;13.436;2023-05-10T14:34:09;6.43;;;3.40;;
24435;SDS011;12616;52.470;13.436;2023-05-10T14:36:36;11.83;;;4.00;;
24435;SDS011;12616;52.470;13.436;2023-05-10T14:39:03;6.53;;;3.77;;
24435;SDS011;12616;52.470;13.436;2023-05-10T14:41:30;4.63;;;3.43;;
24435;SDS011;12616;52.470;13.436;2023-05-10T14:43:57;3.40;;;3.10;;
24435;SDS011;12616;52.470;13.436;2023-05-10T14:46:25;4.40;;;3.30;;
24435;SDS011;12616;52.470;13.436;2023-05-10T14:48:52;3.80;;;3.23;;